sensor_id;sensor_type;location;lat;lon;timestamp;temperature;humidity
66102;HTU21D;52883;51.094;5.880;2024-01-06T00:01:24;7.20;118.99
66102;HTU21D;52883;51.094;5.880;2024-01-06T00:03:50;7.19;118.99
66102;HTU21D;52883;51.094;5.880;2024-01-06T00:06:15;7.20;118.99
66102;HTU21D;52883;51.094;5.880;2024-01-06T00:08:41;7.20;118.99
66102;HTU21D;52883;51.094;5.880;2024-01-06T00:11:07;7.20;118.99
66102;HTU21D;52883;51.094;5.880;2024-01-06T00:13:32;7.20;118.99
66102;HTU21D;52883;51.094;5.880;2024-01-06T00:15:58;7.23;118.99
66102;HTU21D;52883;51.094;5.880;2024-01-06T00:18:24;7.24;118.99
66102;HTU21D;52883;51.094;5.880;2024-01-06T00:20:50;7.25;118.99
66102;HTU21D;52883;51.094;5.880;2024-01-06T00:23:17;7.25;118.99
66102;HTU21D;52883;51.094;5.880;2024-01-06T00:25:42;7.26;118.99
66102;HTU21D;52883;51.094;5.880;2024-01-06T00:28:08;7.28;118.99
66102;HTU21D;52883;51.094;5.880;2024-01-06T00:30:33;7.29;118.99
66102;HTU21D;52883;51.094;5.880;2024-01-06T00:32:59;7.29;118.99
66102;HTU21D;52883;51.094;5.880;2024-01-06T00:35:25;7.28;118.99
66102;HTU21D;52883;51.094;5.880;2024-01-06T00:37:50;7.29;118.99
66102;HTU21D;52883;51.094;5.880;2024-01-06T00:40:16;7.30;118.99
66102;HTU21D;52883;51.094;5.880;2024-01-06T00:42:41;7.30;118.99
66102;HTU21D;52883;51.094;5.880;2024-01-06T00:45:07;7.30;118.99
66102;HTU21D;52883;51.094;5.880;2024-01-06T00:47:33;7.30;118.99
66102;HTU21D;52883;51.094;5.880;2024-01-06T00:49:58;7.32;118.99
66102;HTU21D;52883;51.094;5.880;2024-01-06T00:52:24;7.32;118.99
66102;HTU21D;52883;51.094;5.880;2024-01-06T00:54:50;7.30;118.99
66102;HTU21D;52883;51.094;5.880;2024-01-06T00:57:15;7.30;118.99
66102;HTU21D;52883;51.094;5.880;2024-01-06T00:59:41;7.27;118.99
66102;HTU21D;52883;51.094;5.880;2024-01-06T01:02:06;7.23;118.99
66102;HTU21D;52883;51.094;5.880;2024-01-06T01:04:32;7.18;118.99
66102;HTU21D;52883;51.094;5.880;2024-01-06T01:06:57;7.17;118.99
66102;HTU21D;52883;51.094;5.880;2024-01-06T01:09:23;7.15;118.99
66102;HTU21D;52883;51.094;5.880;2024-01-06T01:11:48;7.16;118.99
66102;HTU21D;52883;51.094;5.880;2024-01-06T01:14:14;7.19;118.99
66102;HTU21D;52883;51.094;5.880;2024-01-06T01:16:40;7.22;118.99
66102;HTU21D;52883;51.094;5.880;2024-01-06T01:19:05;7.22;118.99
66102;HTU21D;52883;51.094;5.880;2024-01-06T01:21:31;7.24;118.99
66102;HTU21D;52883;51.094;5.880;2024-01-06T01:23:56;7.27;118.99
66102;HTU21D;52883;51.094;5.880;2024-01-06T01:26:22;7.30;118.99
66102;HTU21D;52883;51.094;5.880;2024-01-06T01:28:48;7.33;118.99
66102;HTU21D;52883;51.094;5.880;2024-01-06T01:31:13;7.34;118.99
66102;HTU21D;52883;51.094;5.880;2024-01-06T01:33:39;7.34;118.99
66102;HTU21D;52883;51.094;5.880;2024-01-06T01:36:05;7.33;118.99
66102;HTU21D;52883;51.094;5.880;2024-01-06T01:38:30;7.33;118.99
66102;HTU21D;52883;51.094;5.880;2024-01-06T01:40:56;7.33;118.99
66102;HTU21D;52883;51.094;5.880;2024-01-06T01:43:22;7.33;118.99
66102;HTU21D;52883;51.094;5.880;2024-01-06T01:45:52;7.34;118.99
66102;HTU21D;52883;51.094;5.880;2024-01-06T01:48:19;7.37;118.99
66102;HTU21D;52883;51.094;5.880;2024-01-06T01:50:46;7.38;118.99
66102;HTU21D;52883;51.094;5.880;2024-01-06T01:53:13;7.39;118.99
66102;HTU21D;52883;51.094;5.880;2024-01-06T01:55:41;7.40;118.99
66102;HTU21D;52883;51.094;5.880;2024-01-06T01:58:09;7.39;118.99
66102;HTU21D;52883;51.094;5.880;2024-01-06T02:00:36;7.35;118.99
66102;HTU21D;52883;51.094;5.880;2024-01-06T02:03:04;7.31;118.99
66102;HTU21D;52883;51.094;5.880;2024-01-06T02:05:30;7.29;118.99
66102;HTU21D;52883;51.094;5.880;2024-01-06T02:07:56;7.27;118.99
66102;HTU21D;52883;51.094;5.880;2024-01-06T02:10:22;7.23;118.99
66102;HTU21D;52883;51.094;5.880;2024-01-06T02:12:49;7.16;118.99
66102;HTU21D;52883;51.094;5.880;2024-01-06T02:15:17;7.14;118.99
66102;HTU21D;52883;51.094;5.880;2024-01-06T02:17:43;7.11;118.99
66102;HTU21D;52883;51.094;5.880;2024-01-06T02:20:11;7.10;118.99
66102;HTU21D;52883;51.094;5.880;2024-01-06T02:22:37;7.09;118.99
66102;HTU21D;52883;51.094;5.880;2024-01-06T02:25:06;7.08;118.99
66102;HTU21D;52883;51.094;5.880;2024-01-06T02:27:38;7.07;118.99
66102;HTU21D;52883;51.094;5.880;2024-01-06T02:30:06;7.01;118.99
66102;HTU21D;52883;51.094;5.880;2024-01-06T02:32:32;6.94;118.99
66102;HTU21D;52883;51.094;5.880;2024-01-06T02:34:57;6.87;118.99
66102;HTU21D;52883;51.094;5.880;2024-01-06T02:37:23;6.81;118.99
66102;HTU21D;52883;51.094;5.880;2024-01-06T02:39:48;6.73;118.99
66102;HTU21D;52883;51.094;5.880;2024-01-06T02:42:14;6.69;118.99
66102;HTU21D;52883;51.094;5.880;2024-01-06T02:44:40;6.64;118.99
66102;HTU21D;52883;51.094;5.880;2024-01-06T02:47:05;6.63;118.99
66102;HTU21D;52883;51.094;5.880;2024-01-06T02:49:31;6.65;118.99
66102;HTU21D;52883;51.094;5.880;2024-01-06T02:51:57;6.67;118.99
66102;HTU21D;52883;51.094;5.880;2024-01-06T02:54:22;6.66;118.99
66102;HTU21D;52883;51.094;5.880;2024-01-06T02:56:48;6.61;118.99
66102;HTU21D;52883;51.094;5.880;2024-01-06T02:59:13;6.57;118.99
66102;HTU21D;52883;51.094;5.880;2024-01-06T03:01:39;6.55;118.99
66102;HTU21D;52883;51.094;5.880;2024-01-06T03:04:04;6.53;118.99
66102;HTU21D;52883;51.094;5.880;2024-01-06T03:06:30;6.48;118.99
66102;HTU21D;52883;51.094;5.880;2024-01-06T03:08:55;6.44;118.99
66102;HTU21D;52883;51.094;5.880;2024-01-06T03:11:21;6.41;118.99
66102;HTU21D;52883;51.094;5.880;2024-01-06T03:13:47;6.40;118.99
66102;HTU21D;52883;51.094;5.880;2024-01-06T03:16:13;6.39;118.99
66102;HTU21D;52883;51.094;5.880;2024-01-06T03:18:38;6.37;118.99
66102;HTU21D;52883;51.094;5.880;2024-01-06T03:21:04;6.37;118.99
66102;HTU21D;52883;51.094;5.880;2024-01-06T03:23:30;6.37;118.99
66102;HTU21D;52883;51.094;5.880;2024-01-06T03:25:55;6.34;118.99
66102;HTU21D;52883;51.094;5.880;2024-01-06T03:28:21;6.31;118.99
66102;HTU21D;52883;51.094;5.880;2024-01-06T03:30:46;6.30;118.99
66102;HTU21D;52883;51.094;5.880;2024-01-06T03:33:12;6.30;118.99
66102;HTU21D;52883;51.094;5.880;2024-01-06T03:35:38;6.28;118.99
66102;HTU21D;52883;51.094;5.880;2024-01-06T03:38:03;6.23;118.99
66102;HTU21D;52883;51.094;5.880;2024-01-06T03:40:29;6.17;118.99
66102;HTU21D;52883;51.094;5.880;2024-01-06T03:42:54;6.12;118.99
66102;HTU21D;52883;51.094;5.880;2024-01-06T03:45:20;6.12;118.99
66102;HTU21D;52883;51.094;5.880;2024-01-06T03:47:46;6.11;118.99
66102;HTU21D;52883;51.094;5.880;2024-01-06T03:50:12;6.11;118.99
66102;HTU21D;52883;51.094;5.880;2024-01-06T03:52:38;6.11;118.99
66102;HTU21D;52883;51.094;5.880;2024-01-06T03:55:05;6.08;118.99
66102;HTU21D;52883;51.094;5.880;2024-01-06T03:57:31;6.05;118.99
66102;HTU21D;52883;51.094;5.880;2024-01-06T03:59:57;6.05;118.99
66102;HTU21D;52883;51.094;5.880;2024-01-06T04:02:22;6.05;118.99
66102;HTU21D;52883;51.094;5.880;2024-01-06T04:04:49;6.04;118.99
66102;HTU21D;52883;51.094;5.880;2024-01-06T04:07:15;6.01;118.99
66102;HTU21D;52883;51.094;5.880;2024-01-06T04:09:43;5.99;118.99
66102;HTU21D;52883;51.094;5.880;2024-01-06T04:12:09;5.95;118.99
66102;HTU21D;52883;51.094;5.880;2024-01-06T04:14:35;5.93;118.99
66102;HTU21D;52883;51.094;5.880;2024-01-06T04:17:00;5.90;118.99
66102;HTU21D;52883;51.094;5.880;2024-01-06T04:19:26;5.90;118.99
66102;HTU21D;52883;51.094;5.880;2024-01-06T04:21:51;5.90;118.99
66102;HTU21D;52883;51.094;5.880;2024-01-06T04:24:17;5.93;118.99
66102;HTU21D;52883;51.094;5.880;2024-01-06T04:26:42;5.93;118.99
66102;HTU21D;52883;51.094;5.880;2024-01-06T04:29:10;5.95;118.99
66102;HTU21D;52883;51.094;5.880;2024-01-06T04:31:37;5.94;118.99
66102;HTU21D;52883;51.094;5.880;2024-01-06T04:34:03;5.93;118.99
66102;HTU21D;52883;51.094;5.880;2024-01-06T04:36:29;5.94;118.99
66102;HTU21D;52883;51.094;5.880;2024-01-06T04:38:54;5.93;118.99
66102;HTU21D;52883;51.094;5.880;2024-01-06T04:41:20;5.96;118.99
66102;HTU21D;52883;51.094;5.880;2024-01-06T04:43:46;5.98;118.99
66102;HTU21D;52883;51.094;5.880;2024-01-06T04:46:11;5.99;118.99
66102;HTU21D;52883;51.094;5.880;2024-01-06T04:48:40;5.93;118.99
66102;HTU21D;52883;51.094;5.880;2024-01-06T04:51:06;5.87;118.99
66102;HTU21D;52883;51.094;5.880;2024-01-06T04:53:35;5.82;118.99
66102;HTU21D;52883;51.094;5.880;2024-01-06T04:56:01;5.81;118.99
66102;HTU21D;52883;51.094;5.880;2024-01-06T04:58:27;5.78;118.99
66102;HTU21D;52883;51.094;5.880;2024-01-06T05:00:53;5.79;118.99
66102;HTU21D;52883;51.094;5.880;2024-01-06T05:03:18;5.77;118.99
66102;HTU21D;52883;51.094;5.880;2024-01-06T05:05:44;5.75;118.99
66102;HTU21D;52883;51.094;5.880;2024-01-06T05:08:10;5.74;118.99
66102;HTU21D;52883;51.094;5.880;2024-01-06T05:10:35;5.72;118.99
66102;HTU21D;52883;51.094;5.880;2024-01-06T05:13:01;5.69;118.99
66102;HTU21D;52883;51.094;5.880;2024-01-06T05:15:26;5.63;118.99
66102;HTU21D;52883;51.094;5.880;2024-01-06T05:17:52;5.55;118.99
66102;HTU21D;52883;51.094;5.880;2024-01-06T05:20:18;5.50;118.99
66102;HTU21D;52883;51.094;5.880;2024-01-06T05:22:43;5.46;118.99
66102;HTU21D;52883;51.094;5.880;2024-01-06T05:25:09;5.47;118.99
66102;HTU21D;52883;51.094;5.880;2024-01-06T05:27:35;5.41;118.99
66102;HTU21D;52883;51.094;5.880;2024-01-06T05:30:01;5.36;118.99
66102;HTU21D;52883;51.094;5.880;2024-01-06T05:32:26;5.31;118.99
66102;HTU21D;52883;51.094;5.880;2024-01-06T05:34:52;5.32;118.99
66102;HTU21D;52883;51.094;5.880;2024-01-06T05:37:18;5.26;118.99
66102;HTU21D;52883;51.094;5.880;2024-01-06T05:39:43;5.23;118.99
66102;HTU21D;52883;51.094;5.880;2024-01-06T05:42:09;5.15;118.99
66102;HTU21D;52883;51.094;5.880;2024-01-06T05:44:38;5.04;118.99
66102;HTU21D;52883;51.094;5.880;2024-01-06T05:47:04;5.00;118.99
66102;HTU21D;52883;51.094;5.880;2024-01-06T05:49:30;4.97;118.99
66102;HTU21D;52883;51.094;5.880;2024-01-06T05:51:55;4.93;118.99
66102;HTU21D;52883;51.094;5.880;2024-01-06T05:54:21;4.98;118.99
66102;HTU21D;52883;51.094;5.880;2024-01-06T05:56:47;4.95;118.99
66102;HTU21D;52883;51.094;5.880;2024-01-06T05:59:12;4.95;118.99
66102;HTU21D;52883;51.094;5.880;2024-01-06T06:01:38;4.94;118.99
66102;HTU21D;52883;51.094;5.880;2024-01-06T06:04:03;4.92;118.99
66102;HTU21D;52883;51.094;5.880;2024-01-06T06:06:30;4.92;118.99
66102;HTU21D;52883;51.094;5.880;2024-01-06T06:08:55;4.93;118.99
66102;HTU21D;52883;51.094;5.880;2024-01-06T06:11:21;4.93;118.99
66102;HTU21D;52883;51.094;5.880;2024-01-06T06:13:47;4.93;118.99
66102;HTU21D;52883;51.094;5.880;2024-01-06T06:16:12;4.93;118.99
66102;HTU21D;52883;51.094;5.880;2024-01-06T06:18:38;4.89;118.99
66102;HTU21D;52883;51.094;5.880;2024-01-06T06:21:05;4.88;118.99
66102;HTU21D;52883;51.094;5.880;2024-01-06T06:23:31;4.83;118.99
66102;HTU21D;52883;51.094;5.880;2024-01-06T06:25:57;4.82;118.99
66102;HTU21D;52883;51.094;5.880;2024-01-06T06:28:23;4.82;118.99
66102;HTU21D;52883;51.094;5.880;2024-01-06T06:30:49;4.81;118.99
66102;HTU21D;52883;51.094;5.880;2024-01-06T06:33:15;4.80;118.99
66102;HTU21D;52883;51.094;5.880;2024-01-06T06:35:40;4.83;118.99
66102;HTU21D;52883;51.094;5.880;2024-01-06T06:38:06;4.82;118.99
66102;HTU21D;52883;51.094;5.880;2024-01-06T06:40:31;4.80;118.99
66102;HTU21D;52883;51.094;5.880;2024-01-06T06:42:57;4.77;118.99
66102;HTU21D;52883;51.094;5.880;2024-01-06T06:45:23;4.74;118.99
66102;HTU21D;52883;51.094;5.880;2024-01-06T06:47:49;4.71;118.99
66102;HTU21D;52883;51.094;5.880;2024-01-06T06:50:16;4.71;118.99
66102;HTU21D;52883;51.094;5.880;2024-01-06T06:52:42;4.72;118.99
66102;HTU21D;52883;51.094;5.880;2024-01-06T06:55:08;4.72;118.99
66102;HTU21D;52883;51.094;5.880;2024-01-06T06:57:33;4.73;118.99
66102;HTU21D;52883;51.094;5.880;2024-01-06T06:59:59;4.74;118.99
66102;HTU21D;52883;51.094;5.880;2024-01-06T07:02:26;4.72;118.99
66102;HTU21D;52883;51.094;5.880;2024-01-06T07:04:51;4.71;118.99
66102;HTU21D;52883;51.094;5.880;2024-01-06T07:07:17;4.67;118.99
66102;HTU21D;52883;51.094;5.880;2024-01-06T07:09:43;4.71;118.99
66102;HTU21D;52883;51.094;5.880;2024-01-06T07:12:08;4.72;118.99
66102;HTU21D;52883;51.094;5.880;2024-01-06T07:14:34;4.68;118.99
66102;HTU21D;52883;51.094;5.880;2024-01-06T07:16:59;4.73;118.99
66102;HTU21D;52883;51.094;5.880;2024-01-06T07:19:25;4.69;118.99
66102;HTU21D;52883;51.094;5.880;2024-01-06T07:21:50;4.69;118.99
66102;HTU21D;52883;51.094;5.880;2024-01-06T07:24:16;4.68;118.99
66102;HTU21D;52883;51.094;5.880;2024-01-06T07:26:41;4.72;118.99
66102;HTU21D;52883;51.094;5.880;2024-01-06T07:29:07;4.73;118.99
66102;HTU21D;52883;51.094;5.880;2024-01-06T07:31:33;4.74;118.99
66102;HTU21D;52883;51.094;5.880;2024-01-06T07:33:59;4.72;118.99
66102;HTU21D;52883;51.094;5.880;2024-01-06T07:36:25;4.71;118.99
66102;HTU21D;52883;51.094;5.880;2024-01-06T07:38:50;4.72;118.99
66102;HTU21D;52883;51.094;5.880;2024-01-06T07:41:18;4.73;118.99
66102;HTU21D;52883;51.094;5.880;2024-01-06T07:43:43;4.73;118.99
66102;HTU21D;52883;51.094;5.880;2024-01-06T07:46:09;4.74;118.99
66102;HTU21D;52883;51.094;5.880;2024-01-06T07:48:35;4.73;118.99
66102;HTU21D;52883;51.094;5.880;2024-01-06T07:51:01;4.68;118.99
66102;HTU21D;52883;51.094;5.880;2024-01-06T07:53:28;4.69;118.99
66102;HTU21D;52883;51.094;5.880;2024-01-06T07:55:54;4.69;118.99
66102;HTU21D;52883;51.094;5.880;2024-01-06T07:58:20;4.73;118.99
66102;HTU21D;52883;51.094;5.880;2024-01-06T08:00:47;4.73;118.99
66102;HTU21D;52883;51.094;5.880;2024-01-06T08:03:13;4.73;118.99
66102;HTU21D;52883;51.094;5.880;2024-01-06T08:05:39;4.73;118.99
66102;HTU21D;52883;51.094;5.880;2024-01-06T08:08:05;4.76;118.99
66102;HTU21D;52883;51.094;5.880;2024-01-06T08:10:30;4.80;118.99
66102;HTU21D;52883;51.094;5.880;2024-01-06T08:12:57;4.81;118.99
66102;HTU21D;52883;51.094;5.880;2024-01-06T08:15:22;4.81;118.99
66102;HTU21D;52883;51.094;5.880;2024-01-06T08:17:48;4.83;118.99
66102;HTU21D;52883;51.094;5.880;2024-01-06T08:20:14;4.82;118.99
66102;HTU21D;52883;51.094;5.880;2024-01-06T08:22:39;4.79;118.99
66102;HTU21D;52883;51.094;5.880;2024-01-06T08:25:05;4.77;118.99
66102;HTU21D;52883;51.094;5.880;2024-01-06T08:27:34;4.75;118.99
66102;HTU21D;52883;51.094;5.880;2024-01-06T08:30:00;4.73;118.99
66102;HTU21D;52883;51.094;5.880;2024-01-06T08:32:26;4.76;118.99
66102;HTU21D;52883;51.094;5.880;2024-01-06T08:34:51;4.76;118.99
66102;HTU21D;52883;51.094;5.880;2024-01-06T08:37:17;4.78;118.99
66102;HTU21D;52883;51.094;5.880;2024-01-06T08:39:43;4.73;118.99
66102;HTU21D;52883;51.094;5.880;2024-01-06T08:42:09;4.69;118.99
66102;HTU21D;52883;51.094;5.880;2024-01-06T08:44:34;4.67;118.99
66102;HTU21D;52883;51.094;5.880;2024-01-06T08:47:00;4.65;118.99
66102;HTU21D;52883;51.094;5.880;2024-01-06T08:49:25;4.60;118.99
66102;HTU21D;52883;51.094;5.880;2024-01-06T08:51:51;4.59;118.99
66102;HTU21D;52883;51.094;5.880;2024-01-06T08:54:16;4.61;118.99
66102;HTU21D;52883;51.094;5.880;2024-01-06T08:56:43;4.63;118.99
66102;HTU21D;52883;51.094;5.880;2024-01-06T08:59:08;4.62;118.99
66102;HTU21D;52883;51.094;5.880;2024-01-06T09:01:34;4.64;118.99
66102;HTU21D;52883;51.094;5.880;2024-01-06T09:04:02;4.63;118.99
66102;HTU21D;52883;51.094;5.880;2024-01-06T09:06:28;4.65;118.99
66102;HTU21D;52883;51.094;5.880;2024-01-06T09:08:53;4.64;118.99
66102;HTU21D;52883;51.094;5.880;2024-01-06T09:11:19;4.63;118.99
66102;HTU21D;52883;51.094;5.880;2024-01-06T09:13:44;4.69;118.99
66102;HTU21D;52883;51.094;5.880;2024-01-06T09:16:10;4.73;118.99
66102;HTU21D;52883;51.094;5.880;2024-01-06T09:18:36;4.74;118.99
66102;HTU21D;52883;51.094;5.880;2024-01-06T09:21:02;4.73;118.99
66102;HTU21D;52883;51.094;5.880;2024-01-06T09:23:28;4.73;118.99
66102;HTU21D;52883;51.094;5.880;2024-01-06T09:25:54;4.69;118.99
66102;HTU21D;52883;51.094;5.880;2024-01-06T09:28:20;4.65;118.99
66102;HTU21D;52883;51.094;5.880;2024-01-06T09:30:48;4.59;118.99
66102;HTU21D;52883;51.094;5.880;2024-01-06T09:33:14;4.52;118.99
66102;HTU21D;52883;51.094;5.880;2024-01-06T09:35:41;4.49;118.99
66102;HTU21D;52883;51.094;5.880;2024-01-06T09:38:07;4.48;118.99
66102;HTU21D;52883;51.094;5.880;2024-01-06T09:40:34;4.45;118.99
66102;HTU21D;52883;51.094;5.880;2024-01-06T09:43:01;4.48;118.99
66102;HTU21D;52883;51.094;5.880;2024-01-06T09:45:28;4.51;118.99
66102;HTU21D;52883;51.094;5.880;2024-01-06T09:47:54;4.49;118.99
66102;HTU21D;52883;51.094;5.880;2024-01-06T09:50:21;4.52;118.99
66102;HTU21D;52883;51.094;5.880;2024-01-06T09:52:48;4.57;118.99
66102;HTU21D;52883;51.094;5.880;2024-01-06T09:55:25;4.66;118.99
66102;HTU21D;52883;51.094;5.880;2024-01-06T09:57:53;4.74;118.99
66102;HTU21D;52883;51.094;5.880;2024-01-06T10:00:20;4.75;118.99
66102;HTU21D;52883;51.094;5.880;2024-01-06T10:02:49;4.78;118.99
66102;HTU21D;52883;51.094;5.880;2024-01-06T10:05:17;4.74;118.99
66102;HTU21D;52883;51.094;5.880;2024-01-06T10:07:45;4.75;118.99
66102;HTU21D;52883;51.094;5.880;2024-01-06T10:10:11;4.75;118.99
66102;HTU21D;52883;51.094;5.880;2024-01-06T10:12:43;4.73;118.99
66102;HTU21D;52883;51.094;5.880;2024-01-06T10:15:10;4.76;118.99
66102;HTU21D;52883;51.094;5.880;2024-01-06T10:17:40;4.80;118.99
66102;HTU21D;52883;51.094;5.880;2024-01-06T10:20:09;4.79;118.99
66102;HTU21D;52883;51.094;5.880;2024-01-06T10:22:36;4.84;118.99
66102;HTU21D;52883;51.094;5.880;2024-01-06T10:25:10;4.86;118.99
66102;HTU21D;52883;51.094;5.880;2024-01-06T10:27:38;4.88;118.99
66102;HTU21D;52883;51.094;5.880;2024-01-06T10:30:08;4.86;118.99
66102;HTU21D;52883;51.094;5.880;2024-01-06T10:32:35;4.94;118.99
66102;HTU21D;52883;51.094;5.880;2024-01-06T10:35:02;5.08;118.99
66102;HTU21D;52883;51.094;5.880;2024-01-06T10:37:29;5.19;118.99
66102;HTU21D;52883;51.094;5.880;2024-01-06T10:40:06;5.20;118.99
66102;HTU21D;52883;51.094;5.880;2024-01-06T10:42:32;5.23;118.99
66102;HTU21D;52883;51.094;5.880;2024-01-06T10:45:00;5.22;118.99
66102;HTU21D;52883;51.094;5.880;2024-01-06T10:47:27;5.13;118.99
66102;HTU21D;52883;51.094;5.880;2024-01-06T10:49:59;5.06;118.99
66102;HTU21D;52883;51.094;5.880;2024-01-06T10:52:27;5.01;118.99
66102;HTU21D;52883;51.094;5.880;2024-01-06T10:54:54;4.95;118.99
66102;HTU21D;52883;51.094;5.880;2024-01-06T10:57:21;4.94;118.99
66102;HTU21D;52883;51.094;5.880;2024-01-06T10:59:51;4.93;118.99
66102;HTU21D;52883;51.094;5.880;2024-01-06T11:02:18;4.86;118.99
66102;HTU21D;52883;51.094;5.880;2024-01-06T11:04:47;4.79;118.99
66102;HTU21D;52883;51.094;5.880;2024-01-06T11:07:16;4.76;118.99
66102;HTU21D;52883;51.094;5.880;2024-01-06T11:09:52;4.72;118.99
66102;HTU21D;52883;51.094;5.880;2024-01-06T11:12:19;4.72;118.99
66102;HTU21D;52883;51.094;5.880;2024-01-06T11:14:45;4.68;118.99
66102;HTU21D;52883;51.094;5.880;2024-01-06T11:17:11;4.68;118.99
66102;HTU21D;52883;51.094;5.880;2024-01-06T11:22:28;4.72;118.99
66102;HTU21D;52883;51.094;5.880;2024-01-06T11:25:04;4.72;118.99
66102;HTU21D;52883;51.094;5.880;2024-01-06T11:27:31;4.69;118.99
66102;HTU21D;52883;51.094;5.880;2024-01-06T11:29:58;4.66;118.99
66102;HTU21D;52883;51.094;5.880;2024-01-06T11:35:12;4.65;118.99
66102;HTU21D;52883;51.094;5.880;2024-01-06T11:42:57;4.72;118.99
66102;HTU21D;52883;51.094;5.880;2024-01-06T11:45:24;4.71;118.99
66102;HTU21D;52883;51.094;5.880;2024-01-06T11:47:57;4.72;118.99
66102;HTU21D;52883;51.094;5.880;2024-01-06T11:50:27;4.73;118.99
66102;HTU21D;52883;51.094;5.880;2024-01-06T11:52:54;4.76;118.99
66102;HTU21D;52883;51.094;5.880;2024-01-06T11:55:20;4.77;118.99
66102;HTU21D;52883;51.094;5.880;2024-01-06T11:57:46;4.72;118.99
66102;HTU21D;52883;51.094;5.880;2024-01-06T12:00:13;4.68;118.99
66102;HTU21D;52883;51.094;5.880;2024-01-06T12:02:40;4.64;118.99
66102;HTU21D;52883;51.094;5.880;2024-01-06T12:05:12;4.57;118.99
66102;HTU21D;52883;51.094;5.880;2024-01-06T12:07:40;4.57;118.99
66102;HTU21D;52883;51.094;5.880;2024-01-06T12:10:06;4.56;118.99
66102;HTU21D;52883;51.094;5.880;2024-01-06T12:12:33;4.57;118.99
66102;HTU21D;52883;51.094;5.880;2024-01-06T12:14:58;4.59;118.99
66102;HTU21D;52883;51.094;5.880;2024-01-06T12:17:29;4.60;118.99
66102;HTU21D;52883;51.094;5.880;2024-01-06T12:19:55;4.61;118.99
66102;HTU21D;52883;51.094;5.880;2024-01-06T12:22:24;4.62;118.99
66102;HTU21D;52883;51.094;5.880;2024-01-06T12:24:50;4.66;118.99
66102;HTU21D;52883;51.094;5.880;2024-01-06T12:27:16;4.62;118.99
66102;HTU21D;52883;51.094;5.880;2024-01-06T12:29:43;4.60;118.99
66102;HTU21D;52883;51.094;5.880;2024-01-06T12:32:10;4.57;118.99
66102;HTU21D;52883;51.094;5.880;2024-01-06T12:34:36;4.58;118.99
66102;HTU21D;52883;51.094;5.880;2024-01-06T12:37:02;4.57;118.99
66102;HTU21D;52883;51.094;5.880;2024-01-06T12:39:30;4.54;118.99
66102;HTU21D;52883;51.094;5.880;2024-01-06T12:41:56;4.51;118.99
66102;HTU21D;52883;51.094;5.880;2024-01-06T12:44:22;4.48;118.99
66102;HTU21D;52883;51.094;5.880;2024-01-06T12:46:49;4.49;118.99
66102;HTU21D;52883;51.094;5.880;2024-01-06T12:49:14;4.48;118.99
66102;HTU21D;52883;51.094;5.880;2024-01-06T12:51:40;4.49;118.99
66102;HTU21D;52883;51.094;5.880;2024-01-06T12:54:06;4.48;118.99
66102;HTU21D;52883;51.094;5.880;2024-01-06T12:56:31;4.51;118.99
66102;HTU21D;52883;51.094;5.880;2024-01-06T12:58:57;4.49;118.99
66102;HTU21D;52883;51.094;5.880;2024-01-06T13:01:23;4.56;118.99
66102;HTU21D;52883;51.094;5.880;2024-01-06T13:03:48;4.57;118.99
66102;HTU21D;52883;51.094;5.880;2024-01-06T13:06:14;4.60;118.99
66102;HTU21D;52883;51.094;5.880;2024-01-06T13:08:42;4.59;118.99
66102;HTU21D;52883;51.094;5.880;2024-01-06T13:11:08;4.58;118.99
66102;HTU21D;52883;51.094;5.880;2024-01-06T13:13:34;4.59;118.99
66102;HTU21D;52883;51.094;5.880;2024-01-06T13:16:00;4.59;118.99
66102;HTU21D;52883;51.094;5.880;2024-01-06T13:18:28;4.59;118.99
66102;HTU21D;52883;51.094;5.880;2024-01-06T13:20:54;4.52;118.99
66102;HTU21D;52883;51.094;5.880;2024-01-06T13:23:20;4.47;118.99
66102;HTU21D;52883;51.094;5.880;2024-01-06T13:25:45;4.43;118.99
66102;HTU21D;52883;51.094;5.880;2024-01-06T13:28:11;4.39;118.99
66102;HTU21D;52883;51.094;5.880;2024-01-06T13:30:37;4.34;118.99
66102;HTU21D;52883;51.094;5.880;2024-01-06T13:33:05;4.33;118.99
66102;HTU21D;52883;51.094;5.880;2024-01-06T13:35:30;4.38;118.99
66102;HTU21D;52883;51.094;5.880;2024-01-06T13:37:56;4.39;118.99
66102;HTU21D;52883;51.094;5.880;2024-01-06T13:40:22;4.35;118.99
66102;HTU21D;52883;51.094;5.880;2024-01-06T13:42:49;4.35;118.99
66102;HTU21D;52883;51.094;5.880;2024-01-06T13:45:18;4.32;118.99
66102;HTU21D;52883;51.094;5.880;2024-01-06T13:47:44;4.32;118.99
66102;HTU21D;52883;51.094;5.880;2024-01-06T13:50:16;4.31;118.99
66102;HTU21D;52883;51.094;5.880;2024-01-06T13:52:43;4.28;118.99
66102;HTU21D;52883;51.094;5.880;2024-01-06T13:55:09;4.24;118.99
66102;HTU21D;52883;51.094;5.880;2024-01-06T13:57:36;4.24;118.99
66102;HTU21D;52883;51.094;5.880;2024-01-06T14:00:02;4.23;118.99
66102;HTU21D;52883;51.094;5.880;2024-01-06T14:02:38;4.27;118.99
66102;HTU21D;52883;51.094;5.880;2024-01-06T14:05:04;4.20;118.99
66102;HTU21D;52883;51.094;5.880;2024-01-06T14:07:37;4.18;118.99
66102;HTU21D;52883;51.094;5.880;2024-01-06T14:10:04;4.18;118.99
66102;HTU21D;52883;51.094;5.880;2024-01-06T14:12:31;4.18;118.99
66102;HTU21D;52883;51.094;5.880;2024-01-06T14:14:57;4.20;118.99
66102;HTU21D;52883;51.094;5.880;2024-01-06T14:17:24;4.19;118.99
66102;HTU21D;52883;51.094;5.880;2024-01-06T14:19:50;4.21;118.99
66102;HTU21D;52883;51.094;5.880;2024-01-06T14:22:16;4.22;118.99
66102;HTU21D;52883;51.094;5.880;2024-01-06T14:24:42;4.23;118.99
66102;HTU21D;52883;51.094;5.880;2024-01-06T14:27:08;4.26;118.99
66102;HTU21D;52883;51.094;5.880;2024-01-06T14:29:34;4.29;118.99
66102;HTU21D;52883;51.094;5.880;2024-01-06T14:32:00;4.27;118.99
66102;HTU21D;52883;51.094;5.880;2024-01-06T14:34:26;4.26;118.99
66102;HTU21D;52883;51.094;5.880;2024-01-06T14:36:51;4.23;118.99
66102;HTU21D;52883;51.094;5.880;2024-01-06T14:39:17;4.22;118.99
66102;HTU21D;52883;51.094;5.880;2024-01-06T14:41:44;4.16;118.99
66102;HTU21D;52883;51.094;5.880;2024-01-06T14:44:09;4.15;118.99
66102;HTU21D;52883;51.094;5.880;2024-01-06T14:46:36;4.13;118.99
66102;HTU21D;52883;51.094;5.880;2024-01-06T14:49:03;4.13;118.99
66102;HTU21D;52883;51.094;5.880;2024-01-06T14:51:28;4.10;118.99
66102;HTU21D;52883;51.094;5.880;2024-01-06T14:53:54;4.10;118.99
66102;HTU21D;52883;51.094;5.880;2024-01-06T14:56:22;4.12;118.99
66102;HTU21D;52883;51.094;5.880;2024-01-06T14:58:48;4.12;118.99
66102;HTU21D;52883;51.094;5.880;2024-01-06T15:01:13;4.08;118.99
66102;HTU21D;52883;51.094;5.880;2024-01-06T15:03:39;4.04;118.99
66102;HTU21D;52883;51.094;5.880;2024-01-06T15:06:05;4.01;118.99
66102;HTU21D;52883;51.094;5.880;2024-01-06T15:08:30;3.98;118.99
66102;HTU21D;52883;51.094;5.880;2024-01-06T15:10:56;3.90;118.99
66102;HTU21D;52883;51.094;5.880;2024-01-06T15:13:21;3.93;118.99
66102;HTU21D;52883;51.094;5.880;2024-01-06T15:15:47;3.91;118.99
66102;HTU21D;52883;51.094;5.880;2024-01-06T15:18:16;3.89;118.99
66102;HTU21D;52883;51.094;5.880;2024-01-06T15:20:41;3.91;118.99